createdAt,value
2022-11-05T00:01:50.534Z,14.31
2022-11-05T00:04:35.882Z,14.32
2022-11-05T00:07:32.851Z,14.31
2022-11-05T00:10:07.593Z,14.28
2022-11-05T00:12:52.806Z,14.26
2022-11-05T00:15:38.086Z,14.27
2022-11-05T00:18:04.837Z,14.25
2022-11-05T00:20:31.476Z,14.20
2022-11-05T00:23:20.814Z,14.23
2022-11-05T00:25:57.089Z,14.26
2022-11-05T00:28:24.711Z,14.28
2022-11-05T00:30:52.060Z,14.28
2022-11-05T00:33:18.878Z,14.27
2022-11-05T00:35:46.591Z,14.24
2022-11-05T00:38:13.451Z,14.23
2022-11-05T00:40:40.238Z,14.19
2022-11-05T00:43:25.590Z,14.10
2022-11-05T00:45:52.345Z,14.02
2022-11-05T00:48:37.689Z,14.05
2022-11-05T00:51:04.637Z,14.10
2022-11-05T00:53:31.327Z,14.14
2022-11-05T00:55:58.210Z,14.14
2022-11-05T00:58:24.971Z,14.11
2022-11-05T01:00:58.759Z,14.08
2022-11-05T01:03:29.820Z,14.09
2022-11-05T01:05:58.491Z,14.07
2022-11-05T01:08:27.422Z,14.04
2022-11-05T01:10:57.514Z,14.00
2022-11-05T01:13:28.203Z,14.04
2022-11-05T01:15:55.633Z,14.04
2022-11-05T01:18:23.765Z,13.99
2022-11-05T01:20:50.881Z,13.99
2022-11-05T01:23:17.776Z,13.99
2022-11-05T01:25:44.773Z,13.97
2022-11-05T01:28:11.580Z,13.96
2022-11-05T01:30:38.725Z,13.92
2022-11-05T01:33:05.429Z,13.84
2022-11-05T01:35:32.202Z,13.85
2022-11-05T01:37:58.923Z,13.89
2022-11-05T01:40:26.197Z,13.87
2022-11-05T01:42:53.175Z,13.81
2022-11-05T01:45:25.881Z,13.82
2022-11-05T01:48:08.237Z,13.87
2022-11-05T01:50:47.387Z,13.90
2022-11-05T01:53:14.264Z,13.88
2022-11-05T01:55:49.894Z,13.82
2022-11-05T01:58:20.436Z,13.84
2022-11-05T02:00:47.726Z,13.86
2022-11-05T02:03:15.482Z,13.86
2022-11-05T02:05:42.524Z,13.82
2022-11-05T02:08:16.842Z,13.80
2022-11-05T02:10:45.109Z,13.83
2022-11-05T02:13:12.119Z,13.86
2022-11-05T02:16:03.735Z,13.79
2022-11-05T02:18:45.515Z,13.78
2022-11-05T02:21:42.806Z,13.81
2022-11-05T02:24:18.462Z,13.80
2022-11-05T02:27:08.439Z,13.80
2022-11-05T02:29:47.617Z,13.79
2022-11-05T02:32:28.186Z,13.79
2022-11-05T02:34:57.796Z,13.93
2022-11-05T02:37:24.402Z,13.86
2022-11-05T02:40:09.183Z,13.82
2022-11-05T02:42:41.180Z,13.82
2022-11-05T02:45:11.062Z,13.81
2022-11-05T02:47:45.273Z,13.83
2022-11-05T02:50:20.971Z,13.84
2022-11-05T02:53:07.794Z,13.87
2022-11-05T02:55:49.907Z,13.89
2022-11-05T02:58:16.646Z,13.88
2022-11-05T03:01:06.902Z,13.84
2022-11-05T03:03:47.952Z,13.87
2022-11-05T03:06:33.042Z,13.82
2022-11-05T03:09:22.074Z,13.74
2022-11-05T03:12:26.484Z,13.73
2022-11-05T03:15:03.185Z,13.69
2022-11-05T03:17:39.118Z,13.69
2022-11-05T03:20:21.651Z,13.71
2022-11-05T03:22:55.445Z,13.63
2022-11-05T03:25:24.456Z,13.64
2022-11-05T03:27:56.037Z,13.68
2022-11-05T03:30:24.800Z,13.67
2022-11-05T03:32:56.385Z,13.66
2022-11-05T03:35:27.703Z,13.67
2022-11-05T03:38:01.643Z,13.65
2022-11-05T03:40:32.345Z,13.69
2022-11-05T03:43:00.879Z,13.70
2022-11-05T03:45:36.198Z,13.69
2022-11-05T03:48:04.099Z,13.69
2022-11-05T03:50:41.088Z,13.66
2022-11-05T03:53:17.666Z,13.57
2022-11-05T03:55:53.917Z,13.50
2022-11-05T03:58:22.231Z,13.46
2022-11-05T04:00:49.598Z,13.41
2022-11-05T04:03:16.652Z,13.41
2022-11-05T04:05:43.390Z,13.39
2022-11-05T04:08:28.558Z,13.40
2022-11-05T04:11:13.921Z,13.45
2022-11-05T04:13:40.677Z,13.43
2022-11-05T04:16:25.944Z,13.38
2022-11-05T04:18:52.728Z,13.40
2022-11-05T04:21:38.007Z,13.44
2022-11-05T04:24:11.185Z,13.45
2022-11-05T04:26:47.512Z,13.44
2022-11-05T04:29:32.790Z,13.41
2022-11-05T04:31:59.778Z,13.42
2022-11-05T04:34:26.490Z,13.40
2022-11-05T04:36:53.375Z,13.40
2022-11-05T04:39:20.913Z,13.40
2022-11-05T04:41:50.469Z,13.33
2022-11-05T04:44:17.244Z,13.33
2022-11-05T04:46:44.099Z,13.32
2022-11-05T04:49:10.845Z,13.35
2022-11-05T04:51:37.481Z,13.31
2022-11-05T04:54:04.254Z,13.27
2022-11-05T04:56:40.097Z,13.24
2022-11-05T04:59:09.193Z,13.25
2022-11-05T05:01:36.047Z,13.22
2022-11-05T05:04:03.378Z,13.17
2022-11-05T05:06:30.024Z,13.04
2022-11-05T05:08:56.877Z,12.98
2022-11-05T05:11:23.539Z,12.99
2022-11-05T05:13:50.537Z,12.96
2022-11-05T05:16:25.669Z,12.99
2022-11-05T05:18:53.582Z,13.02
2022-11-05T05:21:40.342Z,13.06
2022-11-05T05:24:08.900Z,13.09
2022-11-05T05:26:43.458Z,13.09
2022-11-05T05:29:10.836Z,13.13
2022-11-05T05:31:37.853Z,13.15
2022-11-05T05:34:06.027Z,13.18
2022-11-05T05:36:32.819Z,13.23
2022-11-05T05:38:59.609Z,13.24
2022-11-05T05:41:26.397Z,13.26
2022-11-05T05:43:53.108Z,13.26
2022-11-05T05:46:19.856Z,13.26
2022-11-05T05:48:51.768Z,13.24
2022-11-05T05:51:19.000Z,13.24
2022-11-05T05:53:45.892Z,13.25
2022-11-05T05:56:15.140Z,13.24
2022-11-05T05:58:42.370Z,13.22
2022-11-05T06:01:18.234Z,13.20
2022-11-05T06:03:45.651Z,13.26
2022-11-05T06:06:13.462Z,13.25
2022-11-05T06:08:41.025Z,13.24
2022-11-05T06:11:08.398Z,13.17
2022-11-05T06:13:36.250Z,13.17
2022-11-05T06:16:04.685Z,13.18
2022-11-05T06:18:31.781Z,13.21
2022-11-05T06:21:06.417Z,13.17
2022-11-05T06:23:33.922Z,13.15
2022-11-05T06:26:08.729Z,13.16
2022-11-05T06:28:35.808Z,13.20
2022-11-05T06:31:03.349Z,13.21
2022-11-05T06:33:30.158Z,13.24
2022-11-05T06:36:00.949Z,13.24
2022-11-05T06:38:29.287Z,13.25
2022-11-05T06:40:58.460Z,13.24
2022-11-05T06:43:25.469Z,13.25
2022-11-05T06:45:52.166Z,13.13
2022-11-05T06:48:18.930Z,12.93
2022-11-05T06:50:46.082Z,12.76
2022-11-05T06:53:13.720Z,12.61
2022-11-05T06:55:40.806Z,12.53
2022-11-05T06:58:07.552Z,12.52
2022-11-05T07:00:42.454Z,12.40
2022-11-05T07:03:11.917Z,12.25
2022-11-05T07:05:41.547Z,12.24
2022-11-05T07:08:08.296Z,12.24
2022-11-05T07:10:35.049Z,12.20
2022-11-05T07:13:06.731Z,12.24
2022-11-05T07:15:34.986Z,12.27
2022-11-05T07:18:02.406Z,12.29
2022-11-05T07:20:33.944Z,12.30
2022-11-05T07:23:10.457Z,12.27
2022-11-05T07:25:45.796Z,12.19
2022-11-05T07:28:14.706Z,12.15
2022-11-05T07:30:51.056Z,12.07
2022-11-05T07:33:18.963Z,12.04
2022-11-05T07:35:45.806Z,12.11
2022-11-05T07:38:12.671Z,12.16
2022-11-05T07:40:39.602Z,12.18
2022-11-05T07:43:06.709Z,12.12
2022-11-05T07:45:33.489Z,11.96
2022-11-05T07:48:02.472Z,11.80
2022-11-05T07:50:31.463Z,11.84
2022-11-05T07:53:02.020Z,11.88
2022-11-05T07:55:28.824Z,11.96
2022-11-05T07:57:55.481Z,11.81
2022-11-05T08:00:23.764Z,11.67
2022-11-05T08:03:09.722Z,11.54
2022-11-05T08:05:38.612Z,11.45
2022-11-05T08:08:07.142Z,11.57
2022-11-05T08:10:34.378Z,11.73
2022-11-05T08:13:09.226Z,11.85
2022-11-05T08:15:39.141Z,11.88
2022-11-05T08:18:08.367Z,11.96
2022-11-05T08:20:35.650Z,12.08
2022-11-05T08:23:02.349Z,12.18
2022-11-05T08:25:31.645Z,12.20
2022-11-05T08:28:03.819Z,12.25
2022-11-05T08:30:30.811Z,12.30
2022-11-05T08:33:01.802Z,12.35
2022-11-05T08:35:29.370Z,12.38
2022-11-05T08:38:02.815Z,12.41
2022-11-05T08:40:34.750Z,12.41
2022-11-05T08:43:03.376Z,12.33
2022-11-05T08:45:30.383Z,12.29
2022-11-05T08:48:01.676Z,12.28
2022-11-05T08:50:28.958Z,12.05
2022-11-05T08:52:55.712Z,11.92
2022-11-05T08:55:22.544Z,11.99
2022-11-05T08:57:55.379Z,12.02
2022-11-05T09:00:22.140Z,12.13
2022-11-05T09:02:48.796Z,12.09
2022-11-05T09:05:15.560Z,12.18
2022-11-05T09:07:42.648Z,12.35
2022-11-05T09:10:09.829Z,12.50
2022-11-05T09:12:36.472Z,12.68
2022-11-05T09:15:03.526Z,12.72
2022-11-05T09:17:30.246Z,12.82
2022-11-05T09:19:56.999Z,12.95
2022-11-05T09:22:23.693Z,13.05
2022-11-05T09:24:50.448Z,13.20
2022-11-05T09:27:17.894Z,13.26
2022-11-05T09:29:44.640Z,13.21
2022-11-05T09:32:12.143Z,13.31
2022-11-05T09:34:38.943Z,13.41
2022-11-05T09:37:05.632Z,13.48
2022-11-05T09:39:32.353Z,13.52
2022-11-05T09:42:08.550Z,13.36
2022-11-05T09:44:55.144Z,13.29
2022-11-05T09:47:33.597Z,13.20
2022-11-05T09:50:04.360Z,13.03
2022-11-05T09:52:33.375Z,12.95
2022-11-05T09:55:00.174Z,13.02
2022-11-05T09:57:35.046Z,13.04
2022-11-05T10:00:05.713Z,13.03
2022-11-05T10:02:55.647Z,13.06
2022-11-05T10:05:24.231Z,13.24
2022-11-05T10:07:55.513Z,13.45
2022-11-05T10:10:37.857Z,13.73
2022-11-05T10:13:32.265Z,13.93
2022-11-05T10:16:04.086Z,14.07
2022-11-05T10:18:34.573Z,14.24
2022-11-05T10:21:01.303Z,14.42
2022-11-05T10:23:28.834Z,14.37
2022-11-05T10:26:09.141Z,14.32
2022-11-05T10:28:36.349Z,14.29
2022-11-05T10:31:07.404Z,14.22
2022-11-05T10:33:57.841Z,14.11
2022-11-05T10:36:29.085Z,14.02
2022-11-05T10:39:15.030Z,13.98
2022-11-05T10:42:07.277Z,13.93
2022-11-05T10:44:48.583Z,13.87
2022-11-05T10:47:45.855Z,13.72
2022-11-05T10:50:17.558Z,13.48
2022-11-05T10:52:52.955Z,13.66
2022-11-05T10:55:32.614Z,13.76
2022-11-05T10:58:17.680Z,13.66
2022-11-05T11:01:00.226Z,13.59
2022-11-05T11:03:39.453Z,13.49
2022-11-05T11:06:29.340Z,13.48
2022-11-05T11:08:57.660Z,13.44
2022-11-05T11:11:27.814Z,13.46
2022-11-05T11:13:57.281Z,13.46
2022-11-05T11:16:26.558Z,13.56
2022-11-05T11:19:00.617Z,13.68
2022-11-05T11:21:29.165Z,14.00
2022-11-05T11:24:00.530Z,14.08
2022-11-05T11:26:30.229Z,14.20
2022-11-05T11:29:00.125Z,14.10
2022-11-05T11:31:30.024Z,13.97
2022-11-05T11:34:13.177Z,14.10
2022-11-05T11:36:45.476Z,14.35
2022-11-05T11:39:20.054Z,14.48
2022-11-05T11:41:51.128Z,14.34
2022-11-05T11:44:30.374Z,13.89
2022-11-05T11:47:01.972Z,13.79
2022-11-05T11:49:51.316Z,13.90
2022-11-05T11:52:26.868Z,13.89
2022-11-05T11:54:54.087Z,13.80
2022-11-05T11:57:23.807Z,13.73
2022-11-05T12:00:08.271Z,13.66
2022-11-05T12:03:01.890Z,13.36
2022-11-05T12:05:35.035Z,13.55
2022-11-05T12:08:34.773Z,13.89
2022-11-05T12:11:13.631Z,14.01
2022-11-05T12:13:43.164Z,14.07
2022-11-05T12:16:33.348Z,14.05
2022-11-05T12:19:16.962Z,13.82
2022-11-05T12:21:54.667Z,13.69
2022-11-05T12:24:51.933Z,13.57
2022-11-05T12:27:38.141Z,13.66
2022-11-05T12:30:16.744Z,13.74
2022-11-05T12:33:08.502Z,13.66
2022-11-05T12:35:46.988Z,13.38
2022-11-05T12:38:26.139Z,13.35
2022-11-05T12:40:54.287Z,13.40
2022-11-05T12:43:45.944Z,13.53
2022-11-05T12:46:27.356Z,13.67
2022-11-05T12:49:02.078Z,13.69
2022-11-05T12:51:34.170Z,13.61
2022-11-05T12:54:07.279Z,13.58
2022-11-05T12:56:38.752Z,13.62
2022-11-05T12:59:21.738Z,13.63
2022-11-05T13:01:57.051Z,13.65
2022-11-05T13:04:42.043Z,13.39
2022-11-05T13:07:12.094Z,13.50
2022-11-05T13:09:47.896Z,13.56
2022-11-05T13:12:21.785Z,13.61
2022-11-05T13:15:14.086Z,13.76
2022-11-05T13:17:48.969Z,13.77
2022-11-05T13:20:20.192Z,13.82
2022-11-05T13:22:52.102Z,13.95
2022-11-05T13:25:25.290Z,13.88
2022-11-05T13:28:18.394Z,14.01
2022-11-05T13:30:48.625Z,14.24
2022-11-05T13:33:20.790Z,14.47
2022-11-05T13:36:25.451Z,14.60
2022-11-05T13:38:59.306Z,14.72
2022-11-05T13:41:35.085Z,14.76
2022-11-05T13:44:14.613Z,14.77
2022-11-05T13:46:43.937Z,14.61
2022-11-05T13:49:25.767Z,14.32
2022-11-05T13:52:03.697Z,14.34
2022-11-05T13:54:39.046Z,14.32
2022-11-05T13:57:36.389Z,14.36
2022-11-05T14:00:11.465Z,14.47
2022-11-05T14:02:43.136Z,14.39
2022-11-05T14:05:40.409Z,14.47
2022-11-05T14:08:40.456Z,14.49
2022-11-05T14:11:21.826Z,14.46
2022-11-05T14:13:52.513Z,14.28
2022-11-05T14:16:29.531Z,14.36
2022-11-05T14:19:18.264Z,14.49
2022-11-05T14:21:53.225Z,14.37
2022-11-05T14:24:23.123Z,14.35
2022-11-05T14:27:02.069Z,14.33
2022-11-05T14:29:40.720Z,14.28
2022-11-05T14:32:19.754Z,14.10
2022-11-05T14:34:55.232Z,13.90
2022-11-05T14:37:36.943Z,13.70
2022-11-05T14:40:27.188Z,13.59
2022-11-05T14:43:07.991Z,13.54
2022-11-05T14:45:40.972Z,13.52
2022-11-05T14:48:37.708Z,13.47
2022-11-05T14:51:26.279Z,13.41
2022-11-05T14:54:24.021Z,13.33
2022-11-05T14:56:56.260Z,13.28
2022-11-05T14:59:31.386Z,13.04
2022-11-05T15:02:03.118Z,12.78
2022-11-05T15:04:40.438Z,12.69
2022-11-05T15:07:07.178Z,12.65
2022-11-05T15:09:37.146Z,12.47
2022-11-05T15:12:09.180Z,12.47
2022-11-05T15:14:57.693Z,12.65
2022-11-05T15:17:33.422Z,12.78
2022-11-05T15:20:08.840Z,12.73
2022-11-05T15:22:44.182Z,12.60
2022-11-05T15:25:36.152Z,12.61
2022-11-05T15:28:11.237Z,12.56
2022-11-05T15:30:37.998Z,12.61
2022-11-05T15:33:19.835Z,12.55
2022-11-05T15:35:46.710Z,12.47
2022-11-05T15:38:28.727Z,12.47
2022-11-05T15:41:27.035Z,12.51
2022-11-05T15:43:53.879Z,12.50
2022-11-05T15:46:28.069Z,12.48
2022-11-05T15:49:05.541Z,12.36
2022-11-05T15:51:32.518Z,12.32
2022-11-05T15:54:28.506Z,12.29
2022-11-05T15:56:51.908Z,12.28
2022-11-05T15:59:22.360Z,12.33
2022-11-05T16:01:53.672Z,12.16
2022-11-05T16:04:23.753Z,12.05
2022-11-05T16:06:53.655Z,12.04
2022-11-05T16:09:28.809Z,12.00
2022-11-05T16:12:20.850Z,11.94
2022-11-05T16:14:59.636Z,11.83
2022-11-05T16:17:29.504Z,11.73
2022-11-05T16:19:56.800Z,11.61
2022-11-05T16:22:24.147Z,11.44
2022-11-05T16:24:50.890Z,11.30
2022-11-05T16:27:21.873Z,11.28
2022-11-05T16:29:53.757Z,11.33
2022-11-05T16:32:30.275Z,11.31
2022-11-05T16:35:00.453Z,11.27
2022-11-05T16:37:28.083Z,11.22
2022-11-05T16:39:55.687Z,11.21
2022-11-05T16:42:22.405Z,11.24
2022-11-05T16:44:50.040Z,11.29
2022-11-05T16:47:17.504Z,11.39
2022-11-05T16:49:44.464Z,11.53
2022-11-05T16:52:12.570Z,11.66
2022-11-05T16:54:39.354Z,11.78
2022-11-05T16:57:31.714Z,11.89
2022-11-05T16:59:59.828Z,12.00
2022-11-05T17:02:27.077Z,12.11
2022-11-05T17:04:53.921Z,12.17
2022-11-05T17:07:22.989Z,12.24
2022-11-05T17:09:49.853Z,12.31
2022-11-05T17:12:16.613Z,12.37
2022-11-05T17:14:43.489Z,12.44
2022-11-05T17:17:10.336Z,12.49
2022-11-05T17:19:42.230Z,12.54
2022-11-05T17:22:09.068Z,12.59
2022-11-05T17:24:36.275Z,12.63
2022-11-05T17:27:03.941Z,12.65
2022-11-05T17:29:30.598Z,12.69
2022-11-05T17:31:57.423Z,12.71
2022-11-05T17:34:24.134Z,12.74
2022-11-05T17:36:50.868Z,12.77
2022-11-05T17:39:17.502Z,12.80
2022-11-05T17:41:44.505Z,12.80
2022-11-05T17:44:12.135Z,12.82
2022-11-05T17:46:39.143Z,12.84
2022-11-05T17:49:07.793Z,12.86
2022-11-05T17:51:34.968Z,12.88
2022-11-05T17:54:01.626Z,12.90
2022-11-05T17:56:34.367Z,12.89
2022-11-05T17:59:02.046Z,12.92
2022-11-05T18:01:31.770Z,12.90
2022-11-05T18:04:02.464Z,12.93
2022-11-05T18:06:33.952Z,12.94
2022-11-05T18:09:00.594Z,12.94
2022-11-05T18:11:27.634Z,12.94
2022-11-05T18:13:54.389Z,12.93
2022-11-05T18:16:21.098Z,12.94
2022-11-05T18:18:49.227Z,12.94
2022-11-05T18:21:16.109Z,12.93
2022-11-05T18:23:42.865Z,12.93
2022-11-05T18:26:14.528Z,12.92
2022-11-05T18:28:41.942Z,12.92
2022-11-05T18:31:18.441Z,12.90
2022-11-05T18:33:45.410Z,12.92
2022-11-05T18:36:19.982Z,12.89
2022-11-05T18:38:47.177Z,12.88
2022-11-05T18:41:14.046Z,12.85
2022-11-05T18:43:41.152Z,12.87
2022-11-05T18:46:08.113Z,12.84
2022-11-05T18:48:35.388Z,12.84
2022-11-05T18:51:11.073Z,12.81
2022-11-05T18:53:38.493Z,12.79
2022-11-05T18:56:08.054Z,12.78
2022-11-05T18:58:35.339Z,12.78
2022-11-05T19:01:06.608Z,12.75
2022-11-05T19:03:34.025Z,12.74
2022-11-05T19:06:04.725Z,12.72
2022-11-05T19:08:32.513Z,12.70
2022-11-05T19:10:59.518Z,12.68
2022-11-05T19:13:26.826Z,12.66
2022-11-05T19:15:53.462Z,12.64
2022-11-05T19:18:20.210Z,12.64
2022-11-05T19:20:46.839Z,12.61
2022-11-05T19:23:13.590Z,12.59
2022-11-05T19:25:40.310Z,12.57
2022-11-05T19:28:07.055Z,12.54
2022-11-05T19:30:33.745Z,12.52
2022-11-05T19:33:00.650Z,12.50
2022-11-05T19:35:27.290Z,12.49
2022-11-05T19:37:54.015Z,12.47
2022-11-05T19:40:20.734Z,12.44
2022-11-05T19:42:47.754Z,12.42
2022-11-05T19:45:43.004Z,12.41
2022-11-05T19:48:01.113Z,12.40
2022-11-05T19:50:27.761Z,12.39
2022-11-05T19:52:54.613Z,12.35
2022-11-05T19:55:21.624Z,12.32
2022-11-05T19:57:48.370Z,12.31
2022-11-05T20:00:15.467Z,12.29
2022-11-05T20:02:46.333Z,12.27
2022-11-05T20:05:14.291Z,12.27
2022-11-05T20:07:41.315Z,12.25
2022-11-05T20:10:08.744Z,12.22
2022-11-05T20:12:35.962Z,12.21
2022-11-05T20:15:04.089Z,12.18
2022-11-05T20:17:31.025Z,12.17
2022-11-05T20:19:58.041Z,12.14
2022-11-05T20:22:24.776Z,12.12
2022-11-05T20:24:51.698Z,12.10
2022-11-05T20:27:18.776Z,12.07
2022-11-05T20:29:45.628Z,12.05
2022-11-05T20:32:12.718Z,12.04
2022-11-05T20:34:39.501Z,12.01
2022-11-05T20:37:06.171Z,12.01
2022-11-05T20:39:32.947Z,11.99
2022-11-05T20:42:00.613Z,11.97
2022-11-05T20:44:27.502Z,11.96
2022-11-05T20:46:54.549Z,11.94
2022-11-05T20:49:25.171Z,11.94
2022-11-05T20:51:52.540Z,11.91
2022-11-05T20:54:19.223Z,11.89
2022-11-05T20:56:45.999Z,11.87
2022-11-05T20:59:12.669Z,11.86
2022-11-05T21:01:39.514Z,11.84
2022-11-05T21:04:07.594Z,11.80
2022-11-05T21:06:35.827Z,11.78
2022-11-05T21:09:04.155Z,11.76
2022-11-05T21:11:53.627Z,11.76
2022-11-05T21:14:20.703Z,11.75
2022-11-05T21:16:47.481Z,11.73
2022-11-05T21:19:15.274Z,11.72
2022-11-05T21:21:42.014Z,11.70
2022-11-05T21:24:09.263Z,11.69
2022-11-05T21:26:36.019Z,11.66
2022-11-05T21:29:02.859Z,11.62
2022-11-05T21:31:29.580Z,11.61
2022-11-05T21:33:56.332Z,11.61
2022-11-05T21:36:23.044Z,11.61
2022-11-05T21:38:49.778Z,11.61
2022-11-05T21:41:16.421Z,11.62
2022-11-05T21:43:43.183Z,11.60
2022-11-05T21:46:12.284Z,11.59
2022-11-05T21:48:39.170Z,11.60
2022-11-05T21:51:24.823Z,11.59
2022-11-05T21:54:10.118Z,11.58
2022-11-05T21:56:56.393Z,11.57
2022-11-05T21:59:42.673Z,11.54
2022-11-05T22:02:11.572Z,11.53
2022-11-05T22:04:41.057Z,11.53
2022-11-05T22:07:09.271Z,11.52
2022-11-05T22:09:36.262Z,11.54
2022-11-05T22:12:03.406Z,11.54
2022-11-05T22:14:30.202Z,11.53
2022-11-05T22:16:57.581Z,11.53
2022-11-05T22:19:25.040Z,11.53
2022-11-05T22:21:52.193Z,11.52
2022-11-05T22:24:19.549Z,11.53
2022-11-05T22:26:46.707Z,11.52
2022-11-05T22:29:13.473Z,11.50
2022-11-05T22:31:40.486Z,11.48
2022-11-05T22:34:07.445Z,11.47
2022-11-05T22:36:35.013Z,11.45
2022-11-05T22:39:02.282Z,11.46
2022-11-05T22:41:29.080Z,11.47
2022-11-05T22:43:55.914Z,11.46
2022-11-05T22:46:24.486Z,11.47
2022-11-05T22:48:53.325Z,11.47
2022-11-05T22:51:22.801Z,11.46
2022-11-05T22:53:49.578Z,11.48
2022-11-05T22:56:18.992Z,11.46
2022-11-05T22:58:45.998Z,11.46
2022-11-05T23:01:13.983Z,11.44
2022-11-05T23:03:42.138Z,11.45
2022-11-05T23:06:32.543Z,11.44
2022-11-05T23:09:18.377Z,11.45
2022-11-05T23:11:48.253Z,11.43
2022-11-05T23:14:15.250Z,11.43
2022-11-05T23:17:01.536Z,11.42
2022-11-05T23:19:47.342Z,11.42
2022-11-05T23:22:37.678Z,11.40
2022-11-05T23:25:05.883Z,11.39
2022-11-05T23:27:34.035Z,11.39
2022-11-05T23:30:02.584Z,11.37
2022-11-05T23:32:31.265Z,11.35
2022-11-05T23:34:58.972Z,11.36
2022-11-05T23:37:47.508Z,11.37
2022-11-05T23:40:21.852Z,11.35
2022-11-05T23:43:07.638Z,11.34
2022-11-05T23:45:53.476Z,11.32
2022-11-05T23:48:33.547Z,11.30
2022-11-05T23:51:03.345Z,11.30
2022-11-05T23:53:32.072Z,11.29
2022-11-05T23:56:10.749Z,11.29
2022-11-05T23:58:38.400Z,11.26
